Airfield :
LOGIN :

Register | Disclaimer

   EN    FR    IT 

 










Legend :    VFR   Marginal VFR   IFR   Intensive IFR   Very Intensive IFR
Visi :
Ceiling :
>= 8 km
>= 3000ft
5 to 8 km
1000 to 3000 ft
1500m to 5 km
500 to 1000 ft
800 to 1500m
200 to 500 ft
< 800m
< 200 ft
Symbols :   Thunderstorms  Fog  Heavy snow  Heavy precipitations  Wind > 20 kt
SIGMETs :     Misc.  Thunderstorms  Icing  Turbulence  Mountain Waves  Volcanic Ashes







- Airport Elevation : 461 ft
- IATA code : WIE


ETOU - Wiesbaden Army

CURRENT METAR :
  • 240056Z AUTO 00000KT 9999 SCT120 BKN190 12/09 A3021 RMK AO2 SLP231 T01180088 $

EXPIRED METARs :
  • 232356Z AUTO 00000KT 9999 BKN120 12/09 A3023 RMK AO2 SLP237 T01230091 10174 20120 57006 $
  • 232256Z AUTO 33003KT 9999 OVC120 13/09 A3023 RMK AO2 SLP238 T01250090 401930091 $

TAF TAF ETOU
Valid from the 23 at 19:00 until the 25 at 01:00 UTC


231904Z 2319/2501 30009KT 9999 BKN045 QNH3018INS
BECMG 2414/2415 34009KT 9999 SCT040 QNH3012INS TX21/2414Z TN10/2403Z LAST NO AMDS AFT 2319 NEXT 2403
No reported NOTAMs for that airfield.



MET'MAP, your aeronautical weather chart ! - Copyright ORBIFLY December 2007 - Disclaimer

ORBIFLY MET'MAP TEAM :

Programming & Development : Alexandra Zaïnal
Concept & Development : Baudouin d'Aumeries
Co-Development & Prog : Marc-Olivier Méhu
Technical & hardware support : Manuel Goepfert

Contact : metmap@orbifly.com




SOURCES & CREDITS :

   NOAA